Kezdőlap
METAR-TAF:

METAR-TAF

Repülőterek :

Cam Ranh, Vietnam

földrajzi szélesség: 11-59-53N, földrajzi hosszúság: 109-13-10E, magasság: 12 m

Jelenlegi meteorológiai megfigyelések

A jelentés 40 perccel ezelõtt készült, 11:00 UTC
Déli szél 6 kt
Hőmérséklet 31°C
Páratartalom 75%
Légköri nyomás 1006 hPa
Látótávolság 10 km, vagy több
Kevés felhő 1700 lábon

METAR: VVCR 251100Z 19006KT 9999 FEW017 31/26 Q1006 NOSIG

Idő: 18:40 (11:40 UTC)

Előrejelzés

A jelentés 40 perccel ezelõtt készült, 11:00 UTC
Az előrejelzés 25-én 12 óra UTC és 26-én 12 óra UTC között érvényes
Dél-délnyugati szél 9 kt
Látótávolság 10 km, vagy több
Kevés felhő 1700 lábon
26-én 03 óra UTC és 26-én 04 óra UTC között fokozatosan kialakuló
Délkeleti szél 12 kt

TAF: VVCR 251100Z 2512/2612 20009KT 9999 FEW017 BECMG 2603/2604 14012KT

Meteorológiai megfigyelések és előrejelzések több, mint 4000 repülőtéren (METAR és TAF jelentéseket).

A térképen piros és sárga pontok jelzik az elérhető meteorológiai állomásokat.

Mozgassa az egeret a pont fölött, hogy megjelenjen az állomás neve.

Azután kattintson az időjárási megfigyelések és előrejelzések megtekintéséhez.

A térkép megváltoztatása: kattintson a fekete keresztel jelölt zöld gombra ráközelítéshez, a vonallal jelölt zöld gombra távolításhoz, vagy a zöld nyilakra a szomszédos térképek eléréséhez.


METAR-TAF: